Latest Weather Observations for Georgetown Airport

IDQ60801

Issued at 10:02 pm EST Wednesday 24 August 2016 (issued every 30 minutes, with the page automatically refreshed every 10 minutes)

About weather observations | Map of weather stations | Latest weather observations for QLD | Other Formats
Station Details ID: 030124 Name: GEORGETOWN AIRPORT Lat: -18.30 Lon: 143.53 Height: 301.77 m
Data from the previous 72 hours. | See also: Recent months at Georgetown Airport
Date/Time
EST
Temp
°C
App
Temp
°C
Dew
Point
°C
Rel
Hum
%
Delta-T
°C
Wind Press
QNH
hPa
Press
MSL
hPa
Rain since
9am
mm
Dir  Spd
km/h
Gust
km/h
Spd
kts
Gust
kts
24/10:00pm 21.8 22.6 17.4 76 2.7 SSW 9 17 5 9 1013.4 - 0.0
24/09:30pm 22.1 22.2 17.5 75 2.9 SSW 13 20 7 11 1013.3 - 0.0
24/09:00pm 22.6 23.6 17.7 74 3.1 SSW 9 19 5 10 1013.3 1012.1 0.0
24/08:30pm 22.9 22.4 17.8 73 3.2 SSW 17 28 9 15 1013.0 - 0.0
24/08:00pm 23.2 22.3 18.3 74 3.1 SSW 20 28 11 15 1012.3 - 0.0
24/07:30pm 23.6 22.4 18.5 73 3.3 SW 22 35 12 19 1011.8 - 0.0
24/07:00pm 24.2 23.0 18.4 70 3.7 SW 22 35 12 19 1011.2 - 0.0
24/06:30pm 25.3 22.7 17.7 62 4.8 SW 28 43 15 23 1010.3 - 0.0
24/06:00pm 29.8 27.5 14.0 38 9.6 WNW 19 28 10 15 1009.3 1008.0 0.0
24/05:30pm 30.4 28.0 13.7 36 10.2 NW 19 26 10 14 1009.0 - 0.0
24/05:00pm 31.1 27.4 13.8 34 10.6 NW 26 37 14 20 1008.6 - 0.0
24/04:30pm 31.2 29.0 14.8 37 10.2 NW 20 35 11 19 1008.6 - 0.0
24/04:00pm 31.3 29.7 14.9 37 10.2 WNW 17 26 9 14 1008.5 - 0.0
24/03:30pm 30.7 29.4 14.8 38 9.8 NW 15 24 8 13 1008.6 - 0.0
24/03:00pm 31.1 29.2 15.1 38 10.0 NW 19 30 10 16 1008.6 1007.3 0.0
24/02:30pm 31.7 29.8 15.2 36 10.3 NNW 19 30 10 16 1008.9 - 0.0
24/02:00pm 31.3 30.2 15.3 38 10.0 WNW 15 28 8 15 1009.4 - 0.0
24/01:30pm 29.6 27.7 15.3 41 8.9 WNW 19 30 10 16 1010.1 - 0.0
24/01:00pm 30.5 28.8 15.8 41 9.2 N 19 32 10 17 1010.5 - 0.0
24/12:30pm 29.3 28.8 16.8 47 7.9 NW 15 22 8 12 1011.2 - 0.0
24/12:00pm 29.2 28.2 16.7 46 7.9 NNW 17 24 9 13 1011.7 1010.4 0.0
24/11:30am 28.7 28.6 16.9 48 7.5 NW 13 22 7 12 1012.2 - 0.0
24/11:00am 27.6 27.6 17.2 53 6.6 NNW 13 20 7 11 1012.8 - 0.0
24/10:30am 26.8 27.0 17.6 57 5.9 WNW 13 20 7 11 1013.4 - 0.0
24/10:00am 25.5 24.6 16.9 59 5.4 N 17 24 9 13 1013.8 - 0.0
24/09:30am 25.8 24.8 18.0 62 5.0 NNE 20 28 11 15 1013.9 - 0.0
24/09:00am 24.2 23.4 17.2 65 4.4 N 17 24 9 13 1014.1 1012.9 0.0
24/08:30am 23.6 22.4 17.1 67 4.1 N 19 26 10 14 1014.2 - 0.0
24/08:00am 22.7 21.9 16.0 66 4.1 N 15 20 8 11 1013.8 - 0.0
24/07:30am 21.6 21.0 15.7 69 3.6 N 13 19 7 10 1013.2 - 0.0
24/07:00am 18.9 19.4 15.0 78 2.3 N 6 9 3 5 1013.0 - 0.0
24/06:30am 19.0 19.4 14.7 76 2.5 NNE 6 9 3 5 1012.4 - 0.0
24/06:00am 19.0 19.2 14.7 76 2.5 ENE 7 9 4 5 1011.7 1010.4 0.0
24/05:30am 19.9 20.1 14.7 72 3.1 NNE 7 9 4 5 1011.3 - 0.0
24/05:00am 20.5 20.9 14.8 70 3.4 N 6 7 3 4 1011.1 - 0.0
24/04:30am 21.3 21.6 14.9 67 3.8 N 7 11 4 6 1011.0 - 0.0
24/04:00am 21.9 22.2 15.0 65 4.1 N 7 9 4 5 1011.0 - 0.0
24/03:30am 22.5 22.9 15.4 64 4.3 N 7 11 4 6 1010.7 - 0.0
24/03:00am 22.1 22.5 15.2 65 4.2 N 7 9 4 5 1010.6 1009.4 0.0
24/02:30am 22.3 22.6 14.9 63 4.4 N 7 9 4 5 1010.6 - 0.0
24/02:00am 22.7 23.0 15.0 61 4.6 N 7 9 4 5 1010.6 - 0.0
24/01:30am 23.2 23.5 15.0 60 4.9 N 7 9 4 5 1010.7 - 0.0
24/01:00am 23.7 21.9 15.5 60 5.0 NNE 19 22 10 12 1011.2 - 0.0
24/12:30am 23.7 23.1 14.7 57 5.4 W 11 15 6 8 1010.8 - 0.0
24/12:00am 24.4 22.7 14.8 55 5.8 W 17 22 9 12 1010.7 1009.5 0.0
 
Date/Time
EST
Temp
°C
App
Temp
°C
Dew
Point
°C
Rel
Hum
%
Delta-T
°C
Wind Press
QNH
hPa
Press
MSL
hPa
Rain since
9am
mm
Dir  Spd
km/h
Gust
km/h
Spd
kts
Gust
kts
23/11:30pm 24.6 22.6 15.0 55 5.8 W 19 26 10 14 1010.6 - 0.0
23/11:00pm 25.2 23.5 14.6 51 6.4 WNW 17 26 9 14 1010.7 - 0.0
23/10:30pm 21.7 22.7 13.1 58 5.0 CALM 0 0 0 0 1010.5 - 0.0
23/10:00pm 22.5 23.4 13.0 55 5.5 CALM 0 0 0 0 1010.6 - 0.0
23/09:30pm 23.0 23.9 12.9 53 5.9 CALM 0 0 0 0 1010.5 - 0.0
23/09:00pm 23.1 22.8 12.7 52 6.0 N 6 9 3 5 1010.4 1009.2 0.0
23/08:30pm 24.8 24.4 12.4 46 7.2 N 6 7 3 4 1010.1 - 0.0
23/08:00pm 26.0 25.3 12.1 42 8.1 N 7 9 4 5 1009.9 - 0.0
23/07:30pm 27.6 27.2 12.4 39 9.0 N 6 7 3 4 1009.5 - 0.0
23/07:00pm 28.2 27.4 11.7 36 9.6 NW 7 9 4 5 1009.1 - 0.0
23/06:30pm 29.2 27.6 11.7 34 10.3 NNW 11 17 6 9 1008.8 - 0.0
23/06:00pm 30.3 28.0 11.8 32 10.9 NW 15 20 8 11 1008.6 1007.3 0.0
23/05:30pm 31.1 29.0 12.5 32 11.1 NNW 15 22 8 12 1008.2 - 0.0
23/05:00pm 31.2 28.5 11.6 30 11.6 NNW 17 24 9 13 1008.0 - 0.0
23/04:30pm 31.6 29.7 11.9 30 11.7 N 13 20 7 11 1007.9 - 0.0
23/04:00pm 31.6 29.9 12.4 31 11.5 N 13 24 7 13 1007.8 - 0.0
23/03:30pm 31.4 29.1 11.7 29 11.7 NNW 15 26 8 14 1007.8 - 0.0
23/03:00pm 31.2 29.2 11.6 30 11.6 N 13 24 7 13 1008.1 1006.8 0.0
23/02:30pm 31.8 29.8 12.6 31 11.5 NNW 15 24 8 13 1008.5 - 0.0
23/02:00pm 31.3 29.0 13.1 33 11.0 N 17 24 9 13 1009.1 - 0.0
23/01:30pm 30.4 27.7 12.8 34 10.6 NNW 19 24 10 13 1009.6 - 0.0
23/01:00pm 29.5 26.6 12.4 35 10.2 N 19 28 10 15 1010.1 - 0.0
23/12:30pm 29.0 26.1 12.8 36 9.7 NNW 20 30 11 16 1010.8 - 0.0
23/12:00pm 28.9 26.4 13.6 39 9.2 NNW 19 28 10 15 1011.5 1010.3 0.0
23/11:30am 28.8 26.7 13.5 39 9.2 N 17 26 9 14 1012.0 - 0.0
23/11:00am 28.4 26.3 14.6 43 8.4 NNW 19 30 10 16 1012.5 - 0.0
23/10:30am 26.6 24.1 14.0 46 7.6 NNE 20 26 11 14 1013.0 - 0.0
23/10:00am 25.4 23.2 14.5 51 6.6 N 19 24 10 13 1013.4 - 0.0
23/09:30am 24.8 23.3 15.4 56 5.7 N 17 24 9 13 1013.7 - 0.0
23/09:00am 23.6 22.6 15.6 61 4.9 N 15 20 8 11 1013.7 1012.6 0.0
23/08:30am 22.5 21.9 15.6 65 4.2 N 13 19 7 10 1013.8 - 0.0
23/08:00am 21.1 21.7 15.4 70 3.4 ENE 6 9 3 5 1013.5 - 0.0
23/07:30am 20.4 22.2 15.6 74 2.9 CALM 0 6 0 3 1013.3 - 0.0
23/07:00am 19.2 19.9 15.5 79 2.2 E 6 7 3 4 1012.9 - 0.0
23/06:30am 19.0 19.0 15.3 79 2.2 ENE 9 13 5 7 1012.3 - 0.0
23/06:00am 19.4 19.9 15.5 78 2.3 E 7 11 4 6 1012.1 1011.0 0.0
23/05:30am 19.7 19.1 15.6 77 2.5 NE 13 17 7 9 1011.7 - 0.0
23/05:00am 19.8 18.8 15.7 77 2.5 NE 15 19 8 10 1011.3 - 0.0
23/04:30am 19.9 19.6 15.5 76 2.6 ENE 11 13 6 7 1011.6 - 0.0
23/04:00am 20.2 19.5 15.4 74 2.9 ENE 13 15 7 8 1011.8 - 0.0
23/03:30am 20.7 20.0 15.3 71 3.2 ENE 13 15 7 8 1011.8 - 0.0
23/03:00am 21.3 20.5 15.2 68 3.7 ENE 13 15 7 8 1011.8 1010.6 0.0
23/02:30am 21.5 20.9 14.6 65 4.1 NE 11 15 6 8 1011.8 - 0.0
23/02:00am 21.9 21.2 14.3 62 4.5 ENE 11 13 6 7 1011.8 - 0.0
23/01:30am 22.9 21.5 14.5 59 5.0 ENE 15 20 8 11 1011.8 - 0.0
23/01:00am 22.5 22.4 13.8 58 5.1 ENE 7 11 4 6 1012.1 - 0.0
23/12:30am 23.1 22.5 13.6 55 5.6 ENE 9 13 5 7 1012.2 - 0.0
23/12:00am 23.4 22.7 13.3 53 5.9 E 9 15 5 8 1012.3 1011.1 0.0
 
Date/Time
EST
Temp
°C
App
Temp
°C
Dew
Point
°C
Rel
Hum
%
Delta-T
°C
Wind Press
QNH
hPa
Press
MSL
hPa
Rain since
9am
mm
Dir  Spd
km/h
Gust
km/h
Spd
kts
Gust
kts
22/11:30pm 23.3 22.5 12.9 52 6.1 E 9 15 5 8 1012.3 - 0.0
22/11:00pm 21.0 20.4 11.6 55 5.3 WSW 6 7 3 4 1012.0 - 0.0
22/10:30pm 21.5 22.0 11.5 53 5.6 CALM 0 0 0 0 1012.0 - 0.0
22/10:00pm 23.0 22.3 12.0 50 6.3 NW 7 13 4 7 1012.0 - 0.0
22/09:30pm 21.1 21.6 11.7 55 5.3 CALM 0 0 0 0 1011.7 - 0.0
22/09:00pm 21.3 21.7 11.3 53 5.6 CALM 0 0 0 0 1011.5 1010.2 0.0
22/08:30pm 22.5 22.9 11.3 49 6.3 CALM 0 0 0 0 1011.2 - 0.0
22/08:00pm 23.6 23.9 11.0 45 7.1 CALM 0 0 0 0 1010.8 - 0.0
22/07:30pm 24.5 24.1 11.1 43 7.6 WSW 4 7 2 4 1010.5 - 0.0
22/07:00pm 25.6 24.7 10.6 39 8.5 W 6 7 3 4 1010.1 - 0.0
22/06:30pm 27.0 25.9 10.7 36 9.3 W 7 9 4 5 1009.8 - 0.0
22/06:00pm 29.3 28.1 10.4 31 10.9 W 7 9 4 5 1009.6 1008.4 0.0
22/05:30pm 30.5 30.5 9.9 28 11.8 CALM 0 6 0 3 1009.4 - 0.0
22/05:00pm 30.0 28.8 9.5 28 11.6 E 6 13 3 7 1009.1 - 0.0
22/04:30pm 30.5 29.9 10.5 29 11.6 WNW 4 9 2 5 1009.0 - 0.0
22/04:00pm 30.0 28.9 10.0 29 11.5 NE 6 17 3 9 1009.1 - 0.0
22/03:30pm 29.9 28.8 10.5 30 11.2 ENE 7 17 4 9 1009.3 - 0.0
22/03:00pm 29.6 27.6 10.2 30 11.1 ENE 11 19 6 10 1009.5 1008.3 0.0
22/02:30pm 30.2 29.3 11.2 31 11.1 S 7 13 4 7 1009.9 - 0.0
22/02:00pm 29.7 28.0 11.2 31 10.8 N 11 19 6 10 1010.6 - 0.0
22/01:30pm 28.7 27.9 11.7 35 9.9 WNW 7 13 4 7 1011.3 - 0.0
22/01:00pm 29.3 28.4 12.7 36 9.9 E 9 17 5 9 1011.9 - 0.0
22/12:30pm 28.1 26.6 12.0 36 9.4 NNE 11 24 6 13 1012.6 - 0.0
22/12:00pm 28.1 26.5 12.8 38 9.1 NNE 13 20 7 11 1013.2 1012.0 0.0
22/11:30am 26.7 25.1 12.7 42 8.3 N 13 22 7 12 1013.8 - 0.0
22/11:00am 26.3 25.1 12.7 43 8.0 NNE 11 20 6 11 1014.1 - 0.0
22/10:30am 25.3 23.5 13.2 47 7.1 NE 15 20 8 11 1014.5 - 0.0
22/10:00am 24.7 23.3 13.3 49 6.7 NNE 13 24 7 13 1014.7 - 0.0
22/09:30am 23.6 22.2 13.5 53 6.0 NNE 13 19 7 10 1014.7 - 0.0
22/09:00am 23.2 21.7 14.2 57 5.4 NE 15 20 8 11 1014.6 1013.3 0.0
22/08:30am 22.0 20.9 14.4 62 4.5 E 13 17 7 9 1014.5 - 0.0
22/08:00am 20.5 20.5 14.2 67 3.7 ENE 7 9 4 5 1014.5 - 0.0
22/07:30am 18.9 19.1 14.2 74 2.7 ENE 6 7 3 4 1014.0 - 0.0
22/07:00am 16.3 16.0 12.7 79 2.0 E 6 7 3 4 1013.6 - 0.0
22/06:30am 16.8 17.0 13.1 79 2.1 NNE 4 7 2 4 1013.3 - 0.0
22/06:00am 16.6 17.5 12.9 79 2.1 CALM 0 0 0 0 1012.9 1011.7 0.0
22/05:30am 17.3 17.0 12.8 75 2.5 NNE 6 7 3 4 1012.5 - 0.0
22/05:00am 17.5 17.2 12.6 73 2.8 NNE 6 7 3 4 1012.3 - 0.0
22/04:30am 18.5 18.3 12.9 70 3.2 NE 6 7 3 4 1012.1 - 0.0
22/04:00am 19.2 18.6 13.4 69 3.3 E 9 13 5 7 1011.9 - 0.0
22/03:30am 19.4 18.3 13.1 67 3.6 ENE 11 13 6 7 1012.1 - 0.0
22/03:00am 20.0 19.2 13.0 64 4.0 E 9 13 5 7 1012.3 1011.1 0.0
22/02:30am 20.1 18.5 12.8 63 4.2 ENE 13 19 7 10 1012.3 - 0.0
22/02:00am 20.5 18.9 12.7 61 4.5 ENE 13 19 7 10 1012.5 - 0.0
22/01:30am 21.0 19.0 12.7 59 4.8 ENE 15 22 8 12 1012.8 - 0.0
22/01:00am 21.1 19.4 12.5 58 4.9 ENE 13 19 7 10 1013.1 - 0.0
22/12:30am 21.8 19.8 12.6 56 5.3 ENE 15 20 8 11 1013.2 - 0.0
22/12:00am 22.4 20.4 12.6 54 5.7 ENE 15 22 8 12 1013.4 1012.2 0.0
 
Date/Time
EST
Temp
°C
App
Temp
°C
Dew
Point
°C
Rel
Hum
%
Delta-T
°C
Wind Press
QNH
hPa
Press
MSL
hPa
Rain since
9am
mm
Dir  Spd
km/h
Gust
km/h
Spd
kts
Gust
kts
21/11:30pm 23.1 21.0 12.4 51 6.2 ENE 15 20 8 11 1013.5 - 0.0
21/11:00pm 24.1 22.4 12.4 48 6.8 ENE 13 22 7 12 1013.5 - 0.0
21/10:30pm 24.8 21.3 12.1 45 7.4 ENE 22 33 12 18 1013.1 - 0.0

Other Formats:

Comma delimited format used in spreadsheet applications
http://www.bom.gov.au/fwo/IDQ60801/IDQ60801.94274.axf

JavaScript Object Notation format (JSON) in row-major order
http://www.bom.gov.au/fwo/IDQ60801/IDQ60801.94274.json